CYTH

Thompson Airport

Thompson, Manitoba, Canada
TAF CYTH 171238Z 1713/1801 VRB03KT 6SM BR SCT160 SCT220 TEMPO 1713/1715 3/4SM BR FM171500 20005KT 6SM BR FEW120 SCT250 TEMPO 1715/1716 2SM BR FM171600 20008KT P6SM SCT100 BKN220 RMK NXT FCST BY 171900Z
Issued Valid From Valid To
Aug-17 @ 12:38 UTC
(2 hours ago)
Aug-17 @ 13:00 UTC
(2 hours ago)
Aug-18 @ 01:00 UTC
(in 10 hours)
Aug-17 @ 13:00 to Aug-17 @ 15:00
TAF CYTH 171238Z 1713/1801 VRB03KT 6SM BR SCT160 SCT220
Wind Visibility Clouds Conditions
Variable at 3 knots 6 miles
  • Scattered at 16,000' AGL
  • Scattered at 22,000' AGL
  • Mist
Temporary Aug-17 @ 13:00 to Aug-17 @ 15:00
TEMPO 1713/1715 3/4SM BR
Visibility Conditions
3/4 miles
  • Mist
Temporary Aug-17 @ 15:00 to Aug-17 @ 16:00
TEMPO 1715/1716 2SM BR
Visibility Conditions
2 miles
  • Mist
From Aug-17 @ 15:00 to Aug-17 @ 16:00
FM171500 20005KT 6SM BR FEW120 SCT250
Wind Visibility Clouds Conditions
200° at 5 knots 6 miles
  • Few at 12,000' AGL
  • Scattered at 25,000' AGL
  • Mist
From Aug-17 @ 16:00 to Aug-18 @ 01:00
FM171600 20008KT P6SM SCT100 BKN220 RMK NXT FCST BY 171900Z
Wind Visibility Clouds
200° at 8 knots Greater than 6 miles
  • Scattered at 10,000' AGL
  • Broken at 22,000' AGL
TAF CYTH 171238Z 1713/1801 VRB03KT 6SM BR SCT160 SCT220 TEMPO 1713/1715 3/4SM BR FM171500 20005KT 6SM BR FEW120 SCT250 TEMPO 1715/1716 2SM BR FM171600 20008KT P6SM SCT100 BKN220 RMK NXT FCST BY 171900Z
Issued Aug-17 @ 12:38 UTC
(2 hours ago)
Valid From Aug-17 @ 13:00 UTC
(2 hours ago)
Valid To Aug-18 @ 01:00 UTC
(in 10 hours)
Aug-17 @ 13:00 - Aug-17 @ 15:00
Wind Visibility
Variable at 3 knots 6 miles
Clouds
  • Scattered at 16,000' AGL
  • Scattered at 22,000' AGL
Conditions
  • Mist
Temporary Aug-17 @ 13:00 - Aug-17 @ 15:00
Conditions
  • Mist
Temporary Aug-17 @ 15:00 - Aug-17 @ 16:00
Conditions
  • Mist
From Aug-17 @ 15:00 - Aug-17 @ 16:00
Wind Visibility
200° at 5 knots 6 miles
Clouds
  • Few at 12,000' AGL
  • Scattered at 25,000' AGL
Conditions
  • Mist
From Aug-17 @ 16:00 - Aug-18 @ 01:00
Wind Visibility
200° at 8 knots Greater than 6 miles
Clouds
  • Scattered at 10,000' AGL
  • Broken at 22,000' AGL